createdAt,value
2022-08-16T00:00:26.430Z,16.21
2022-08-16T00:02:54.251Z,16.24
2022-08-16T00:05:23.346Z,16.20
2022-08-16T00:07:56.258Z,16.23
2022-08-16T00:10:25.719Z,16.25
2022-08-16T00:12:52.668Z,16.25
2022-08-16T00:15:51.970Z,16.28
2022-08-16T00:18:17.425Z,16.27
2022-08-16T00:20:46.784Z,16.32
2022-08-16T00:23:14.609Z,16.35
2022-08-16T00:26:33.638Z,16.40
2022-08-16T00:28:29.867Z,16.45
2022-08-16T00:30:59.217Z,16.48
2022-08-16T00:33:28.369Z,16.54
2022-08-16T00:35:57.464Z,16.59
2022-08-16T00:38:40.239Z,16.63
2022-08-16T00:41:08.498Z,16.63
2022-08-16T00:43:43.407Z,16.58
2022-08-16T00:46:32.960Z,16.42
2022-08-16T00:49:04.158Z,16.27
2022-08-16T00:51:30.842Z,16.14
2022-08-16T00:53:57.739Z,16.05
2022-08-16T00:56:58.573Z,15.97
2022-08-16T00:59:18.977Z,15.80
2022-08-16T01:01:46.242Z,15.74
2022-08-16T01:04:29.356Z,15.68
2022-08-16T01:07:01.156Z,15.62
2022-08-16T01:09:33.656Z,15.57
2022-08-16T01:12:03.348Z,15.49
2022-08-16T01:14:35.185Z,15.38
2022-08-16T01:17:03.687Z,15.34
2022-08-16T01:19:41.098Z,15.29
2022-08-16T01:22:58.861Z,15.33
2022-08-16T01:25:34.588Z,15.37
2022-08-16T01:28:09.957Z,15.40
2022-08-16T01:30:53.529Z,15.46
2022-08-16T01:33:22.403Z,15.41
2022-08-16T01:36:01.855Z,15.42
2022-08-16T01:38:49.278Z,15.39
2022-08-16T01:41:30.771Z,15.30
2022-08-16T01:44:01.093Z,15.18
2022-08-16T01:46:39.074Z,15.08
2022-08-16T01:49:25.446Z,15.02
2022-08-16T01:52:27.992Z,15.03
2022-08-16T01:55:22.855Z,15.00
2022-08-16T01:57:53.309Z,14.97
2022-08-16T02:00:29.467Z,14.95
2022-08-16T02:03:00.282Z,14.88
2022-08-16T02:05:30.354Z,14.79
2022-08-16T02:07:59.584Z,14.75
2022-08-16T02:10:27.239Z,14.64
2022-08-16T02:12:56.070Z,14.62
2022-08-16T02:15:35.402Z,14.53
2022-08-16T02:18:08.211Z,14.52
2022-08-16T02:20:42.612Z,14.60
2022-08-16T02:23:13.110Z,14.76
2022-08-16T02:25:52.280Z,14.77
2022-08-16T02:28:23.583Z,14.69
2022-08-16T02:30:52.026Z,14.75
2022-08-16T02:33:24.627Z,14.78
2022-08-16T02:36:14.169Z,14.75
2022-08-16T02:38:41.306Z,14.70
2022-08-16T02:41:09.980Z,14.58
2022-08-16T02:43:39.029Z,14.54
2022-08-16T02:46:08.403Z,14.59
2022-08-16T02:48:38.604Z,14.66
2022-08-16T02:51:11.444Z,14.83
2022-08-16T02:53:43.952Z,14.96
2022-08-16T02:56:14.996Z,15.02
2022-08-16T02:58:44.198Z,14.90
2022-08-16T03:01:24.683Z,14.80
2022-08-16T03:04:40.746Z,14.73
2022-08-16T03:06:56.162Z,14.79
2022-08-16T03:09:36.690Z,14.85
2022-08-16T03:12:05.287Z,14.91
2022-08-16T03:14:33.318Z,14.96
2022-08-16T03:17:02.070Z,15.12
2022-08-16T03:19:48.608Z,15.32
2022-08-16T03:22:29.081Z,15.51
2022-08-16T03:25:07.307Z,15.62
2022-08-16T03:27:35.884Z,15.72
2022-08-16T03:30:16.444Z,15.80
2022-08-16T03:32:51.823Z,15.79
2022-08-16T03:35:23.448Z,15.75
2022-08-16T03:38:02.830Z,15.73
2022-08-16T03:40:35.935Z,15.79
2022-08-16T03:43:20.834Z,15.83
2022-08-16T03:45:53.385Z,15.82
2022-08-16T03:48:36.766Z,15.86
2022-08-16T03:51:12.895Z,15.87
2022-08-16T03:53:57.679Z,15.86
2022-08-16T03:56:30.421Z,15.86
2022-08-16T03:58:59.128Z,15.87
2022-08-16T04:01:30.012Z,15.87
2022-08-16T04:03:57.433Z,15.92
2022-08-16T04:06:24.245Z,15.97
2022-08-16T04:08:51.237Z,16.04
2022-08-16T04:11:18.647Z,16.10
2022-08-16T04:14:00.469Z,16.18
2022-08-16T04:16:38.559Z,16.16
2022-08-16T04:19:31.820Z,16.18
2022-08-16T04:22:00.859Z,16.21
2022-08-16T04:24:31.453Z,16.24
2022-08-16T04:26:58.786Z,16.29
2022-08-16T04:29:27.847Z,16.34
2022-08-16T04:32:10.643Z,16.39
2022-08-16T04:34:41.374Z,16.42
2022-08-16T04:37:09.457Z,16.46
2022-08-16T04:39:47.268Z,16.52
2022-08-16T04:42:24.083Z,16.61
2022-08-16T04:44:56.051Z,16.66
2022-08-16T04:47:31.564Z,16.72
2022-08-16T04:50:01.993Z,16.75
2022-08-16T04:52:33.990Z,16.83
2022-08-16T04:55:09.644Z,16.89
2022-08-16T04:57:41.467Z,16.96
2022-08-16T05:00:32.591Z,17.02
2022-08-16T05:03:11.079Z,17.08
2022-08-16T05:05:59.086Z,17.17
2022-08-16T05:08:31.360Z,17.25
2022-08-16T05:11:09.618Z,17.41
2022-08-16T05:13:42.355Z,17.36
2022-08-16T05:16:21.785Z,17.42
2022-08-16T05:18:56.855Z,17.55
2022-08-16T05:21:38.588Z,17.64
2022-08-16T05:24:09.023Z,17.65
2022-08-16T05:26:43.311Z,17.71
2022-08-16T05:29:16.747Z,17.67
2022-08-16T05:31:58.613Z,17.73
2022-08-16T05:34:25.283Z,17.72
2022-08-16T05:36:57.305Z,17.78
2022-08-16T05:39:32.674Z,17.82
2022-08-16T05:42:00.888Z,18.01
2022-08-16T05:44:28.263Z,18.22
2022-08-16T05:47:00.728Z,18.25
2022-08-16T05:49:39.423Z,18.40
2022-08-16T05:52:13.893Z,18.43
2022-08-16T05:54:47.504Z,18.48
2022-08-16T05:57:18.122Z,18.55
2022-08-16T05:59:50.438Z,18.67
2022-08-16T06:02:33.558Z,18.81
2022-08-16T06:05:02.445Z,18.72
2022-08-16T06:07:32.157Z,18.70
2022-08-16T06:10:09.789Z,18.56
2022-08-16T06:12:37.733Z,18.32
2022-08-16T06:15:17.780Z,18.21
2022-08-16T06:17:46.056Z,18.27
2022-08-16T06:20:24.072Z,18.34
2022-08-16T06:22:58.595Z,18.56
2022-08-16T06:25:36.081Z,18.74
2022-08-16T06:28:08.908Z,18.86
2022-08-16T06:30:43.822Z,18.95
2022-08-16T06:33:22.674Z,19.33
2022-08-16T06:35:54.933Z,19.10
2022-08-16T06:38:32.198Z,18.93
2022-08-16T06:41:14.078Z,18.83
2022-08-16T06:43:42.507Z,18.74
2022-08-16T06:46:31.606Z,18.81
2022-08-16T06:49:02.187Z,19.12
2022-08-16T06:51:46.164Z,19.24
2022-08-16T06:54:16.452Z,19.13
2022-08-16T06:56:43.419Z,19.17
2022-08-16T06:59:17.270Z,19.42
2022-08-16T07:01:54.474Z,19.44
2022-08-16T07:04:33.401Z,19.27
2022-08-16T07:07:14.482Z,19.44
2022-08-16T07:09:42.135Z,19.76
2022-08-16T07:12:09.440Z,19.91
2022-08-16T07:14:40.629Z,20.16
2022-08-16T07:17:12.711Z,20.26
2022-08-16T07:20:02.963Z,20.23
2022-08-16T07:22:52.983Z,20.21
2022-08-16T07:25:40.297Z,20.36
2022-08-16T07:28:11.818Z,20.48
2022-08-16T07:30:46.610Z,20.45
2022-08-16T07:33:52.088Z,21.00
2022-08-16T07:36:23.111Z,20.99
2022-08-16T07:38:52.289Z,20.87
2022-08-16T07:41:19.700Z,21.08
2022-08-16T07:43:51.270Z,21.46
2022-08-16T07:46:38.064Z,21.47
2022-08-16T07:49:11.717Z,21.43
2022-08-16T07:51:40.575Z,21.49
2022-08-16T07:54:10.897Z,21.87
2022-08-16T07:56:44.756Z,22.13
2022-08-16T07:59:16.389Z,22.28
2022-08-16T08:01:43.389Z,22.47
2022-08-16T08:04:13.161Z,22.26
2022-08-16T08:06:42.167Z,22.43
2022-08-16T08:09:14.682Z,22.69
2022-08-16T08:12:01.189Z,22.73
2022-08-16T08:14:39.966Z,22.69
2022-08-16T08:17:08.564Z,22.82
2022-08-16T08:19:35.848Z,23.05
2022-08-16T08:22:09.827Z,23.07
2022-08-16T08:24:53.422Z,23.21
2022-08-16T08:27:26.328Z,23.37
2022-08-16T08:30:50.049Z,23.47
2022-08-16T08:32:48.970Z,23.59
2022-08-16T08:35:30.737Z,23.89
2022-08-16T08:37:58.925Z,24.04
2022-08-16T08:40:29.326Z,24.18
2022-08-16T08:43:00.302Z,24.03
2022-08-16T08:45:46.964Z,24.09
2022-08-16T08:48:33.423Z,24.33
2022-08-16T08:51:09.104Z,24.52
2022-08-16T08:53:46.547Z,24.60
2022-08-16T08:56:26.912Z,24.60
2022-08-16T08:59:13.183Z,24.96
2022-08-16T09:01:58.147Z,25.08
2022-08-16T09:04:32.797Z,25.11
2022-08-16T09:07:03.908Z,25.33
2022-08-16T09:09:33.820Z,25.63
2022-08-16T09:12:06.215Z,25.86
2022-08-16T09:14:54.951Z,25.64
2022-08-16T09:17:48.764Z,25.55
2022-08-16T09:20:17.074Z,25.66
2022-08-16T09:22:51.476Z,25.65
2022-08-16T09:25:26.442Z,25.68
2022-08-16T09:28:02.170Z,26.00
2022-08-16T09:30:42.969Z,26.25
2022-08-16T09:33:11.296Z,26.59
2022-08-16T09:35:39.069Z,26.55
2022-08-16T09:38:09.941Z,26.53
2022-08-16T09:40:41.784Z,26.65
2022-08-16T09:43:46.444Z,26.95
2022-08-16T09:46:48.816Z,27.21
2022-08-16T09:48:55.903Z,27.63
2022-08-16T09:51:26.330Z,27.88
2022-08-16T09:54:04.503Z,27.72
2022-08-16T09:56:34.680Z,27.44
2022-08-16T09:59:07.235Z,27.43
2022-08-16T10:01:43.621Z,26.83
2022-08-16T10:04:30.900Z,25.56
2022-08-16T10:07:03.033Z,26.45
2022-08-16T10:09:53.427Z,26.80
2022-08-16T10:12:42.492Z,25.85
2022-08-16T10:15:16.998Z,25.56
2022-08-16T10:18:00.024Z,25.70
2022-08-16T10:20:31.568Z,26.88
2022-08-16T10:23:03.572Z,27.67
2022-08-16T10:27:19.780Z,27.79
2022-08-16T10:28:29.027Z,27.78
2022-08-16T10:30:58.882Z,27.94
2022-08-16T10:33:27.269Z,28.80
2022-08-16T10:36:02.633Z,28.57
2022-08-16T10:38:30.201Z,28.30
2022-08-16T10:41:00.508Z,27.90
2022-08-16T10:43:27.629Z,27.37
2022-08-16T10:46:00.692Z,26.62
2022-08-16T10:48:28.859Z,26.62
2022-08-16T10:51:00.517Z,26.58
2022-08-16T10:53:33.079Z,26.64
2022-08-16T10:56:02.468Z,26.48
2022-08-16T10:58:34.406Z,27.74
2022-08-16T11:01:40.114Z,28.79
2022-08-16T11:03:59.544Z,29.67
2022-08-16T11:06:28.789Z,29.58
2022-08-16T11:14:30.293Z,30.24
2022-08-16T11:17:09.318Z,30.36
2022-08-16T11:20:00.549Z,30.57
2022-08-16T11:22:47.700Z,30.63
2022-08-16T11:25:59.426Z,30.43
2022-08-16T11:28:01.318Z,30.34
2022-08-16T11:30:38.618Z,30.04
2022-08-16T11:33:07.353Z,29.05
2022-08-16T11:38:51.383Z,27.60
2022-08-16T11:41:10.135Z,28.44
2022-08-16T11:43:40.442Z,29.11
2022-08-16T11:46:44.141Z,29.20
2022-08-16T11:49:03.956Z,29.68
2022-08-16T11:51:30.580Z,29.61
2022-08-16T11:53:57.396Z,29.68
2022-08-16T11:56:39.867Z,29.38
2022-08-16T11:59:13.677Z,29.60
2022-08-16T12:01:44.624Z,29.21
2022-08-16T12:04:23.058Z,28.94
2022-08-16T12:06:53.579Z,29.23
2022-08-16T12:09:21.274Z,28.49
2022-08-16T12:11:52.801Z,28.11
2022-08-16T12:14:22.781Z,27.64
2022-08-16T12:16:55.754Z,27.50
2022-08-16T12:19:35.334Z,27.35
2022-08-16T12:22:19.604Z,26.97
2022-08-16T12:24:52.059Z,26.89
2022-08-16T12:27:25.027Z,27.36
2022-08-16T12:29:52.793Z,28.13
2022-08-16T12:32:38.452Z,28.61
2022-08-16T12:35:12.045Z,28.72
2022-08-16T12:37:39.697Z,28.60
2022-08-16T12:40:23.110Z,28.84
2022-08-16T12:42:54.887Z,28.98
2022-08-16T12:45:28.360Z,29.25
2022-08-16T12:48:34.519Z,29.43
2022-08-16T12:51:01.066Z,29.08
2022-08-16T12:53:31.874Z,29.29
2022-08-16T12:55:59.560Z,29.36
2022-08-16T12:58:49.350Z,29.41
2022-08-16T13:01:26.681Z,29.61
2022-08-16T13:04:11.969Z,28.75
2022-08-16T13:06:43.027Z,28.17
2022-08-16T13:09:26.748Z,27.69
2022-08-16T13:12:07.202Z,27.42
2022-08-16T13:14:39.312Z,27.97
2022-08-16T13:17:14.208Z,28.01
2022-08-16T13:20:07.855Z,28.29
2022-08-16T13:22:47.114Z,28.29
2022-08-16T13:25:20.904Z,27.51
2022-08-16T13:28:02.343Z,27.13
2022-08-16T13:30:41.585Z,27.47
2022-08-16T13:33:18.193Z,27.96
2022-08-16T13:35:55.966Z,28.30
2022-08-16T13:38:31.545Z,28.43
2022-08-16T13:41:08.875Z,28.34
2022-08-16T13:43:38.302Z,27.79
2022-08-16T13:46:06.615Z,28.28
2022-08-16T13:48:42.579Z,28.49
2022-08-16T13:51:17.583Z,28.81
2022-08-16T13:53:59.312Z,28.96
2022-08-16T13:56:35.970Z,28.86
2022-08-16T13:59:19.396Z,28.50
2022-08-16T14:01:55.607Z,28.28
2022-08-16T14:04:28.951Z,27.88
2022-08-16T14:07:00.885Z,27.76
2022-08-16T14:09:30.209Z,27.36
2022-08-16T14:11:58.415Z,27.13
2022-08-16T14:14:29.837Z,27.08
2022-08-16T14:16:59.328Z,27.06
2022-08-16T14:19:27.059Z,26.84
2022-08-16T14:22:13.552Z,26.74
2022-08-16T14:24:47.350Z,26.59
2022-08-16T14:27:19.515Z,26.54
2022-08-16T14:29:49.939Z,26.53
2022-08-16T14:32:33.623Z,26.60
2022-08-16T14:35:11.386Z,26.67
2022-08-16T14:37:39.378Z,26.65
2022-08-16T14:40:12.453Z,26.65
2022-08-16T14:42:40.343Z,27.40
2022-08-16T14:45:13.524Z,27.22
2022-08-16T14:47:40.633Z,26.94
2022-08-16T14:50:12.830Z,26.76
2022-08-16T14:53:02.059Z,26.66
2022-08-16T14:55:33.277Z,26.59
2022-08-16T14:58:04.919Z,26.45
2022-08-16T15:00:36.588Z,26.44
2022-08-16T15:03:09.582Z,26.36
2022-08-16T15:05:38.647Z,26.28
2022-08-16T15:08:05.927Z,26.20
2022-08-16T15:10:32.658Z,26.15
2022-08-16T15:13:01.279Z,26.07
2022-08-16T15:15:30.365Z,26.05
2022-08-16T15:17:58.951Z,26.01
2022-08-16T15:20:30.762Z,25.99
2022-08-16T15:22:59.546Z,25.96
2022-08-16T15:25:30.395Z,25.94
2022-08-16T15:27:58.543Z,25.93
2022-08-16T15:30:57.711Z,25.97
2022-08-16T15:33:19.873Z,26.02
2022-08-16T15:35:50.009Z,26.01
2022-08-16T15:38:56.980Z,26.07
2022-08-16T15:41:04.149Z,26.11
2022-08-16T15:43:38.862Z,26.48
2022-08-16T15:46:54.677Z,26.31
2022-08-16T15:49:10.364Z,26.16
2022-08-16T15:51:39.279Z,25.98
2022-08-16T15:54:29.154Z,25.98
2022-08-16T15:56:55.168Z,25.83
2022-08-16T15:59:24.620Z,25.78
2022-08-16T16:01:55.901Z,25.70
2022-08-16T16:04:25.690Z,25.68
2022-08-16T16:06:55.162Z,25.63
2022-08-16T16:09:34.771Z,25.64
2022-08-16T16:12:41.486Z,25.59
2022-08-16T16:14:52.902Z,25.55
2022-08-16T16:17:19.479Z,25.52
2022-08-16T16:19:53.659Z,25.51
2022-08-16T16:22:21.688Z,25.69
2022-08-16T16:24:50.021Z,25.72
2022-08-16T16:27:16.875Z,25.92
2022-08-16T16:29:46.342Z,25.87
2022-08-16T16:32:34.341Z,25.70
2022-08-16T16:35:02.461Z,25.78
2022-08-16T16:37:31.052Z,25.88
2022-08-16T16:39:58.775Z,26.15
2022-08-16T16:42:29.998Z,26.09
2022-08-16T16:45:01.622Z,26.20
2022-08-16T16:47:40.565Z,26.30
2022-08-16T16:50:09.309Z,26.37
2022-08-16T16:52:44.055Z,26.54
2022-08-16T16:55:14.730Z,26.68
2022-08-16T16:58:00.744Z,26.67
2022-08-16T17:00:37.704Z,26.57
2022-08-16T17:03:06.350Z,26.51
2022-08-16T17:05:56.891Z,26.41
2022-08-16T17:08:27.648Z,26.34
2022-08-16T17:10:55.981Z,26.24
2022-08-16T17:13:24.483Z,26.18
2022-08-16T17:15:53.084Z,26.11
2022-08-16T17:21:09.031Z,25.98
2022-08-16T17:23:58.582Z,25.96
2022-08-16T17:26:30.151Z,25.91
2022-08-16T17:29:02.766Z,25.95
2022-08-16T17:31:41.003Z,25.97
2022-08-16T17:34:29.040Z,25.97
2022-08-16T17:37:05.130Z,25.97
2022-08-16T17:39:28.770Z,26.03
2022-08-16T17:39:58.187Z,25.85
2022-08-16T17:42:25.253Z,25.77
2022-08-16T17:44:52.150Z,25.72
2022-08-16T17:47:18.781Z,25.64
2022-08-16T17:49:45.389Z,25.57
2022-08-16T17:52:12.745Z,25.55
2022-08-16T17:54:39.467Z,25.52
2022-08-16T17:57:06.659Z,25.46
2022-08-16T17:59:36.899Z,25.40
2022-08-16T18:02:43.486Z,25.31
2022-08-16T18:05:03.236Z,25.20
2022-08-16T18:07:29.805Z,25.06
2022-08-16T18:09:56.403Z,24.90
2022-08-16T18:12:44.994Z,24.69
2022-08-16T18:15:14.601Z,24.52
2022-08-16T18:17:41.899Z,24.37
2022-08-16T18:20:32.331Z,24.24
2022-08-16T18:23:15.051Z,24.07
2022-08-16T18:25:46.868Z,23.80
2022-08-16T18:28:14.306Z,23.55
2022-08-16T18:30:41.129Z,23.31
2022-08-16T18:33:07.987Z,23.07
2022-08-16T18:35:35.165Z,22.87
2022-08-16T18:38:01.864Z,22.69
2022-08-16T18:40:28.813Z,22.48
2022-08-16T18:43:00.271Z,22.29
2022-08-16T18:45:35.106Z,22.11
2022-08-16T18:48:04.570Z,21.85
2022-08-16T18:51:03.167Z,21.69
2022-08-16T18:53:21.104Z,21.43
2022-08-16T18:55:48.934Z,21.29
2022-08-16T18:58:26.366Z,21.24
2022-08-16T19:00:56.550Z,21.16
2022-08-16T19:03:26.366Z,21.06
2022-08-16T19:06:02.757Z,20.93
2022-08-16T19:08:30.751Z,20.78
2022-08-16T19:10:57.499Z,20.54
2022-08-16T19:13:27.767Z,20.43
2022-08-16T19:15:58.324Z,20.33
2022-08-16T19:18:25.775Z,20.26
2022-08-16T19:20:55.430Z,20.11
2022-08-16T19:23:24.877Z,20.02
2022-08-16T19:25:55.777Z,19.98
2022-08-16T19:28:51.204Z,19.93
2022-08-16T19:31:22.412Z,19.92
2022-08-16T19:33:54.819Z,19.91
2022-08-16T19:36:31.038Z,19.79
2022-08-16T19:39:05.415Z,19.75
2022-08-16T19:41:34.199Z,19.74
2022-08-16T19:44:00.803Z,19.71
2022-08-16T19:46:27.683Z,19.72
2022-08-16T19:48:54.274Z,19.67
2022-08-16T19:51:20.867Z,19.65
2022-08-16T19:53:47.472Z,19.62
2022-08-16T19:56:14.095Z,19.58
2022-08-16T19:58:56.076Z,19.50
2022-08-16T20:01:24.942Z,19.51
2022-08-16T20:03:51.943Z,19.51
2022-08-16T20:06:38.429Z,19.50
2022-08-16T20:09:05.593Z,19.48
2022-08-16T20:11:32.310Z,19.42
2022-08-16T20:13:59.405Z,19.35
2022-08-16T20:16:26.168Z,19.33
2022-08-16T20:18:52.827Z,19.37
2022-08-16T20:21:19.542Z,19.35
2022-08-16T20:23:46.325Z,19.31
2022-08-16T20:26:13.228Z,19.22
2022-08-16T20:28:53.126Z,19.12
2022-08-16T20:31:25.074Z,19.03
2022-08-16T20:33:53.161Z,18.96
2022-08-16T20:36:19.833Z,18.91
2022-08-16T20:38:47.659Z,19.00
2022-08-16T20:41:16.325Z,19.08
2022-08-16T20:43:43.538Z,19.10
2022-08-16T20:46:12.291Z,19.10
2022-08-16T20:48:38.915Z,19.07
2022-08-16T20:51:06.835Z,19.04
2022-08-16T20:53:33.996Z,19.02
2022-08-16T20:56:00.740Z,19.01
2022-08-16T20:58:27.337Z,18.99
2022-08-16T21:00:53.980Z,18.96
2022-08-16T21:03:20.701Z,18.95
2022-08-16T21:05:47.330Z,18.97
2022-08-16T21:08:26.943Z,19.01
2022-08-16T21:11:04.281Z,19.05
2022-08-16T21:13:32.712Z,19.09
2022-08-16T21:16:01.904Z,19.09
2022-08-16T21:18:29.199Z,19.13
2022-08-16T21:20:56.176Z,19.22
2022-08-16T21:23:22.829Z,19.39
2022-08-16T21:25:58.283Z,19.54
2022-08-16T21:28:40.526Z,19.64
2022-08-16T21:31:15.324Z,19.61
2022-08-16T21:33:43.337Z,19.53
2022-08-16T21:36:11.478Z,19.48
2022-08-16T21:38:38.845Z,19.40
2022-08-16T21:41:07.224Z,19.35
2022-08-16T21:43:34.237Z,19.34
2022-08-16T21:46:02.505Z,19.34
2022-08-16T21:48:33.658Z,19.36
2022-08-16T21:51:07.428Z,19.43
2022-08-16T21:53:39.650Z,19.42
2022-08-16T21:56:06.693Z,19.26
2022-08-16T21:58:37.960Z,18.99
2022-08-16T22:01:05.051Z,18.84
2022-08-16T22:03:35.373Z,18.76
2022-08-16T22:06:12.914Z,18.71
2022-08-16T22:08:50.557Z,18.67
2022-08-16T22:11:22.041Z,18.59
2022-08-16T22:13:57.898Z,18.57
2022-08-16T22:16:51.296Z,18.53
2022-08-16T22:19:36.637Z,18.48
2022-08-16T22:22:03.572Z,18.49
2022-08-16T22:24:30.205Z,18.47
2022-08-16T22:26:56.962Z,18.38
2022-08-16T22:29:23.610Z,18.34
2022-08-16T22:31:50.237Z,18.40
2022-08-16T22:34:17.033Z,18.57
2022-08-16T22:36:44.038Z,18.72
2022-08-16T22:39:12.922Z,18.66
2022-08-16T22:41:42.298Z,18.55
2022-08-16T22:44:09.416Z,18.46
2022-08-16T22:46:36.806Z,18.37
2022-08-16T22:49:05.840Z,18.30
2022-08-16T22:51:33.324Z,18.25
2022-08-16T22:54:00.203Z,18.28
2022-08-16T22:56:46.851Z,18.33
2022-08-16T22:59:15.331Z,18.38
2022-08-16T23:01:42.162Z,18.36
2022-08-16T23:04:08.796Z,18.36
2022-08-16T23:06:35.391Z,18.30
2022-08-16T23:09:02.195Z,18.29
2022-08-16T23:11:28.845Z,18.30
2022-08-16T23:13:56.653Z,18.42
2022-08-16T23:16:33.384Z,18.56
2022-08-16T23:19:07.477Z,18.66
2022-08-16T23:21:37.115Z,18.67
2022-08-16T23:24:04.336Z,18.71
2022-08-16T23:26:46.487Z,18.84
2022-08-16T23:29:24.159Z,18.96
2022-08-16T23:31:58.269Z,18.99
2022-08-16T23:34:27.094Z,18.97
2022-08-16T23:36:54.100Z,18.79
2022-08-16T23:39:20.759Z,18.61
2022-08-16T23:41:47.453Z,18.52
2022-08-16T23:44:45.530Z,18.45
2022-08-16T23:47:00.764Z,18.45
2022-08-16T23:50:01.304Z,18.53
2022-08-16T23:52:14.457Z,18.61
2022-08-16T23:54:41.201Z,18.59
2022-08-16T23:57:08.433Z,18.57
2022-08-16T23:59:48.660Z,18.64
